sensor_id;sensor_type;location;lat;lon;timestamp;temperature;humidity
802;DHT22;383;48.766;9.270;2023-05-10T00:00:13;15.90;99.90
802;DHT22;383;48.766;9.270;2023-05-10T00:02:40;15.80;99.90
802;DHT22;383;48.766;9.270;2023-05-10T00:05:07;15.80;99.90
802;DHT22;383;48.766;9.270;2023-05-10T00:07:34;15.70;99.90
802;DHT22;383;48.766;9.270;2023-05-10T00:10:01;15.60;99.90
802;DHT22;383;48.766;9.270;2023-05-10T00:12:28;15.40;99.90
802;DHT22;383;48.766;9.270;2023-05-10T00:14:56;15.40;99.90
802;DHT22;383;48.766;9.270;2023-05-10T00:17:22;15.30;99.90
802;DHT22;383;48.766;9.270;2023-05-10T00:19:49;15.30;99.90
802;DHT22;383;48.766;9.270;2023-05-10T00:22:16;15.30;99.90
802;DHT22;383;48.766;9.270;2023-05-10T00:24:42;15.30;99.90
802;DHT22;383;48.766;9.270;2023-05-10T00:27:09;15.20;99.90
802;DHT22;383;48.766;9.270;2023-05-10T00:29:36;15.20;99.90
802;DHT22;383;48.766;9.270;2023-05-10T00:32:04;15.00;99.90
802;DHT22;383;48.766;9.270;2023-05-10T00:34:31;15.00;99.90
802;DHT22;383;48.766;9.270;2023-05-10T00:36:58;14.90;99.90
802;DHT22;383;48.766;9.270;2023-05-10T00:39:24;14.90;99.90
802;DHT22;383;48.766;9.270;2023-05-10T00:41:51;14.90;99.90
802;DHT22;383;48.766;9.270;2023-05-10T00:44:18;14.90;99.50
802;DHT22;383;48.766;9.270;2023-05-10T00:46:45;14.80;99.90
802;DHT22;383;48.766;9.270;2023-05-10T00:49:13;14.70;99.90
802;DHT22;383;48.766;9.270;2023-05-10T00:51:40;14.70;99.90
802;DHT22;383;48.766;9.270;2023-05-10T00:54:08;14.70;99.90
802;DHT22;383;48.766;9.270;2023-05-10T00:56:35;14.60;99.90
802;DHT22;383;48.766;9.270;2023-05-10T00:59:03;14.60;99.90
802;DHT22;383;48.766;9.270;2023-05-10T01:01:30;14.50;99.90
802;DHT22;383;48.766;9.270;2023-05-10T01:03:58;14.50;99.90
802;DHT22;383;48.766;9.270;2023-05-10T01:06:26;14.50;99.90
802;DHT22;383;48.766;9.270;2023-05-10T01:08:53;14.60;99.90
802;DHT22;383;48.766;9.270;2023-05-10T01:11:19;14.60;99.90
802;DHT22;383;48.766;9.270;2023-05-10T01:13:51;14.70;99.90
802;DHT22;383;48.766;9.270;2023-05-10T01:16:19;14.60;99.90
802;DHT22;383;48.766;9.270;2023-05-10T01:18:45;14.60;99.90
802;DHT22;383;48.766;9.270;2023-05-10T01:21:17;14.60;99.90
802;DHT22;383;48.766;9.270;2023-05-10T01:24:15;14.60;99.90
802;DHT22;383;48.766;9.270;2023-05-10T01:27:05;14.50;99.90
802;DHT22;383;48.766;9.270;2023-05-10T01:30:02;14.60;99.90
802;DHT22;383;48.766;9.270;2023-05-10T01:32:36;14.50;99.90
802;DHT22;383;48.766;9.270;2023-05-10T01:35:12;14.50;99.90
802;DHT22;383;48.766;9.270;2023-05-10T01:37:44;14.50;99.90
802;DHT22;383;48.766;9.270;2023-05-10T01:40:17;14.50;99.90
802;DHT22;383;48.766;9.270;2023-05-10T01:42:49;14.50;99.90
802;DHT22;383;48.766;9.270;2023-05-10T01:45:22;14.50;99.90
802;DHT22;383;48.766;9.270;2023-05-10T01:48:00;14.50;99.90
802;DHT22;383;48.766;9.270;2023-05-10T01:50:30;14.50;99.90
802;DHT22;383;48.766;9.270;2023-05-10T01:52:58;14.40;99.90
802;DHT22;383;48.766;9.270;2023-05-10T01:55:28;14.40;99.90
802;DHT22;383;48.766;9.270;2023-05-10T01:58:05;14.50;99.90
802;DHT22;383;48.766;9.270;2023-05-10T02:00:34;14.50;99.90
802;DHT22;383;48.766;9.270;2023-05-10T02:03:06;14.50;99.90
802;DHT22;383;48.766;9.270;2023-05-10T02:05:34;14.50;99.90
802;DHT22;383;48.766;9.270;2023-05-10T02:08:05;14.50;99.90
802;DHT22;383;48.766;9.270;2023-05-10T02:10:33;14.50;99.90
802;DHT22;383;48.766;9.270;2023-05-10T02:13:02;14.50;99.90
802;DHT22;383;48.766;9.270;2023-05-10T02:15:30;14.50;99.90
802;DHT22;383;48.766;9.270;2023-05-10T02:17:58;14.60;99.90
802;DHT22;383;48.766;9.270;2023-05-10T02:20:27;14.50;99.90
802;DHT22;383;48.766;9.270;2023-05-10T02:22:56;14.50;99.90
802;DHT22;383;48.766;9.270;2023-05-10T02:25:24;14.40;99.90
802;DHT22;383;48.766;9.270;2023-05-10T02:27:52;14.40;99.90
802;DHT22;383;48.766;9.270;2023-05-10T02:30:20;14.50;99.90
802;DHT22;383;48.766;9.270;2023-05-10T02:32:49;14.50;99.90
802;DHT22;383;48.766;9.270;2023-05-10T02:35:16;14.50;99.90
802;DHT22;383;48.766;9.270;2023-05-10T02:37:45;14.50;99.90
802;DHT22;383;48.766;9.270;2023-05-10T02:40:13;14.50;99.90
802;DHT22;383;48.766;9.270;2023-05-10T02:42:42;14.50;99.90
802;DHT22;383;48.766;9.270;2023-05-10T02:45:14;14.50;99.90
802;DHT22;383;48.766;9.270;2023-05-10T02:47:41;14.50;99.90
802;DHT22;383;48.766;9.270;2023-05-10T02:50:09;14.50;99.90
802;DHT22;383;48.766;9.270;2023-05-10T02:52:39;14.60;99.90
802;DHT22;383;48.766;9.270;2023-05-10T02:55:09;14.60;99.90
802;DHT22;383;48.766;9.270;2023-05-10T02:57:40;14.70;99.90
802;DHT22;383;48.766;9.270;2023-05-10T03:00:08;14.60;99.90
802;DHT22;383;48.766;9.270;2023-05-10T03:02:35;14.60;99.90
802;DHT22;383;48.766;9.270;2023-05-10T03:05:02;14.60;99.90
802;DHT22;383;48.766;9.270;2023-05-10T03:07:29;14.60;99.90
802;DHT22;383;48.766;9.270;2023-05-10T03:09:55;14.60;99.90
802;DHT22;383;48.766;9.270;2023-05-10T03:12:33;14.60;99.90
802;DHT22;383;48.766;9.270;2023-05-10T03:15:11;14.60;99.90
802;DHT22;383;48.766;9.270;2023-05-10T03:17:45;14.50;99.90
802;DHT22;383;48.766;9.270;2023-05-10T03:20:19;14.60;99.90
802;DHT22;383;48.766;9.270;2023-05-10T03:22:51;14.60;99.90
802;DHT22;383;48.766;9.270;2023-05-10T03:25:21;14.60;99.90
802;DHT22;383;48.766;9.270;2023-05-10T03:27:50;14.60;99.90
802;DHT22;383;48.766;9.270;2023-05-10T03:30:19;14.60;99.90
802;DHT22;383;48.766;9.270;2023-05-10T03:32:46;14.50;99.90
802;DHT22;383;48.766;9.270;2023-05-10T03:35:13;14.50;99.90
802;DHT22;383;48.766;9.270;2023-05-10T03:37:39;14.50;99.90
802;DHT22;383;48.766;9.270;2023-05-10T03:40:07;14.50;99.90
802;DHT22;383;48.766;9.270;2023-05-10T03:42:34;14.60;99.90
802;DHT22;383;48.766;9.270;2023-05-10T03:45:02;14.50;99.90
802;DHT22;383;48.766;9.270;2023-05-10T03:47:29;14.50;99.90
802;DHT22;383;48.766;9.270;2023-05-10T03:49:56;14.40;99.90
802;DHT22;383;48.766;9.270;2023-05-10T03:52:22;14.40;99.90
802;DHT22;383;48.766;9.270;2023-05-10T03:54:49;14.40;99.90
802;DHT22;383;48.766;9.270;2023-05-10T03:57:16;14.40;99.90
802;DHT22;383;48.766;9.270;2023-05-10T03:59:42;14.40;99.90
802;DHT22;383;48.766;9.270;2023-05-10T04:02:10;14.50;99.90
802;DHT22;383;48.766;9.270;2023-05-10T04:04:37;14.50;99.90
802;DHT22;383;48.766;9.270;2023-05-10T04:07:04;14.50;99.90
802;DHT22;383;48.766;9.270;2023-05-10T04:09:31;14.50;99.90
802;DHT22;383;48.766;9.270;2023-05-10T04:11:59;14.50;99.90
802;DHT22;383;48.766;9.270;2023-05-10T04:14:25;14.50;99.90
802;DHT22;383;48.766;9.270;2023-05-10T04:16:52;14.50;99.90
802;DHT22;383;48.766;9.270;2023-05-10T04:19:20;14.50;99.90
802;DHT22;383;48.766;9.270;2023-05-10T04:21:47;14.60;99.90
802;DHT22;383;48.766;9.270;2023-05-10T04:24:13;14.60;99.90
802;DHT22;383;48.766;9.270;2023-05-10T04:26:40;14.60;99.90
802;DHT22;383;48.766;9.270;2023-05-10T04:29:07;14.60;99.90
802;DHT22;383;48.766;9.270;2023-05-10T04:31:34;14.60;99.90
802;DHT22;383;48.766;9.270;2023-05-10T04:34:01;14.50;99.90
802;DHT22;383;48.766;9.270;2023-05-10T04:36:29;14.40;99.90
802;DHT22;383;48.766;9.270;2023-05-10T04:38:57;14.50;99.90
802;DHT22;383;48.766;9.270;2023-05-10T04:41:24;14.50;99.90
802;DHT22;383;48.766;9.270;2023-05-10T04:43:51;14.50;99.90
802;DHT22;383;48.766;9.270;2023-05-10T04:46:18;14.50;99.90
802;DHT22;383;48.766;9.270;2023-05-10T04:48:44;14.50;99.90
802;DHT22;383;48.766;9.270;2023-05-10T04:51:11;14.50;99.90
802;DHT22;383;48.766;9.270;2023-05-10T04:53:39;14.50;99.90
802;DHT22;383;48.766;9.270;2023-05-10T04:56:06;14.50;99.90
802;DHT22;383;48.766;9.270;2023-05-10T04:58:33;14.50;99.90
802;DHT22;383;48.766;9.270;2023-05-10T05:01:05;14.50;99.90
802;DHT22;383;48.766;9.270;2023-05-10T05:03:31;14.50;99.90
802;DHT22;383;48.766;9.270;2023-05-10T05:05:58;14.50;99.90
802;DHT22;383;48.766;9.270;2023-05-10T05:08:25;14.60;99.90
802;DHT22;383;48.766;9.270;2023-05-10T05:10:53;14.60;99.90
802;DHT22;383;48.766;9.270;2023-05-10T05:13:20;14.70;99.90
802;DHT22;383;48.766;9.270;2023-05-10T05:15:47;14.70;99.90
802;DHT22;383;48.766;9.270;2023-05-10T05:18:13;14.80;99.90
802;DHT22;383;48.766;9.270;2023-05-10T05:20:40;15.00;99.20
802;DHT22;383;48.766;9.270;2023-05-10T05:23:07;15.00;98.60
802;DHT22;383;48.766;9.270;2023-05-10T05:25:33;15.00;99.40
802;DHT22;383;48.766;9.270;2023-05-10T05:28:02;15.10;99.20
802;DHT22;383;48.766;9.270;2023-05-10T05:30:29;15.20;98.70
802;DHT22;383;48.766;9.270;2023-05-10T05:32:55;15.20;98.40
802;DHT22;383;48.766;9.270;2023-05-10T05:35:22;15.20;97.80
802;DHT22;383;48.766;9.270;2023-05-10T05:37:49;15.30;98.70
802;DHT22;383;48.766;9.270;2023-05-10T05:40:15;15.30;98.30
802;DHT22;383;48.766;9.270;2023-05-10T05:42:42;15.40;98.90
802;DHT22;383;48.766;9.270;2023-05-10T05:45:10;15.40;98.50
802;DHT22;383;48.766;9.270;2023-05-10T05:47:38;15.60;98.30
802;DHT22;383;48.766;9.270;2023-05-10T05:50:05;15.70;98.20
802;DHT22;383;48.766;9.270;2023-05-10T05:52:32;15.80;98.30
802;DHT22;383;48.766;9.270;2023-05-10T05:54:59;15.80;95.10
802;DHT22;383;48.766;9.270;2023-05-10T05:57:26;15.80;95.40
802;DHT22;383;48.766;9.270;2023-05-10T05:59:52;15.70;95.60
802;DHT22;383;48.766;9.270;2023-05-10T06:02:20;15.70;95.90
802;DHT22;383;48.766;9.270;2023-05-10T06:04:47;15.60;95.70
802;DHT22;383;48.766;9.270;2023-05-10T06:07:14;15.70;96.30
802;DHT22;383;48.766;9.270;2023-05-10T06:09:40;15.70;96.20
802;DHT22;383;48.766;9.270;2023-05-10T06:12:07;15.80;95.90
802;DHT22;383;48.766;9.270;2023-05-10T06:14:34;15.80;96.50
802;DHT22;383;48.766;9.270;2023-05-10T06:17:00;15.80;96.50
802;DHT22;383;48.766;9.270;2023-05-10T06:19:30;15.90;96.10
802;DHT22;383;48.766;9.270;2023-05-10T06:21:57;15.90;95.90
802;DHT22;383;48.766;9.270;2023-05-10T06:24:24;16.00;96.40
802;DHT22;383;48.766;9.270;2023-05-10T06:26:50;16.10;94.90
802;DHT22;383;48.766;9.270;2023-05-10T06:29:17;16.10;94.30
802;DHT22;383;48.766;9.270;2023-05-10T06:31:44;16.00;94.50
802;DHT22;383;48.766;9.270;2023-05-10T06:34:11;16.00;94.50
802;DHT22;383;48.766;9.270;2023-05-10T06:36:40;16.10;95.00
802;DHT22;383;48.766;9.270;2023-05-10T06:39:06;16.20;94.30
802;DHT22;383;48.766;9.270;2023-05-10T06:41:35;16.30;95.10
802;DHT22;383;48.766;9.270;2023-05-10T06:44:02;16.40;94.20
802;DHT22;383;48.766;9.270;2023-05-10T06:46:29;16.50;94.30
802;DHT22;383;48.766;9.270;2023-05-10T06:48:56;16.50;93.30
802;DHT22;383;48.766;9.270;2023-05-10T06:51:22;16.50;92.10
802;DHT22;383;48.766;9.270;2023-05-10T06:53:51;16.30;92.60
802;DHT22;383;48.766;9.270;2023-05-10T06:56:21;16.30;93.40
802;DHT22;383;48.766;9.270;2023-05-10T06:58:48;16.20;94.30
802;DHT22;383;48.766;9.270;2023-05-10T07:01:14;16.10;94.10
802;DHT22;383;48.766;9.270;2023-05-10T07:03:41;16.20;95.00
802;DHT22;383;48.766;9.270;2023-05-10T07:06:08;16.00;95.50
802;DHT22;383;48.766;9.270;2023-05-10T07:08:35;16.00;96.00
802;DHT22;383;48.766;9.270;2023-05-10T07:11:04;16.10;96.10
802;DHT22;383;48.766;9.270;2023-05-10T07:13:33;16.10;96.30
802;DHT22;383;48.766;9.270;2023-05-10T07:16:00;16.20;94.80
802;DHT22;383;48.766;9.270;2023-05-10T07:18:27;16.20;94.20
802;DHT22;383;48.766;9.270;2023-05-10T07:20:54;16.30;95.40
802;DHT22;383;48.766;9.270;2023-05-10T07:23:21;16.40;95.40
802;DHT22;383;48.766;9.270;2023-05-10T07:25:49;16.50;94.60
802;DHT22;383;48.766;9.270;2023-05-10T07:28:18;16.60;94.70
802;DHT22;383;48.766;9.270;2023-05-10T07:30:45;16.80;95.10
802;DHT22;383;48.766;9.270;2023-05-10T07:33:13;17.10;94.70
802;DHT22;383;48.766;9.270;2023-05-10T07:35:40;17.30;92.90
802;DHT22;383;48.766;9.270;2023-05-10T07:38:07;17.60;92.70
802;DHT22;383;48.766;9.270;2023-05-10T07:40:33;17.80;91.80
802;DHT22;383;48.766;9.270;2023-05-10T07:43:00;17.90;90.50
802;DHT22;383;48.766;9.270;2023-05-10T07:45:29;18.00;90.60
802;DHT22;383;48.766;9.270;2023-05-10T07:47:55;18.10;89.30
802;DHT22;383;48.766;9.270;2023-05-10T07:50:22;18.20;88.80
802;DHT22;383;48.766;9.270;2023-05-10T07:52:49;18.40;86.90
802;DHT22;383;48.766;9.270;2023-05-10T07:55:16;18.50;87.70
802;DHT22;383;48.766;9.270;2023-05-10T07:57:47;18.50;88.10
802;DHT22;383;48.766;9.270;2023-05-10T08:00:17;18.60;87.40
802;DHT22;383;48.766;9.270;2023-05-10T08:02:45;18.60;86.90
802;DHT22;383;48.766;9.270;2023-05-10T08:05:12;18.60;87.40
802;DHT22;383;48.766;9.270;2023-05-10T08:07:39;18.80;87.40
802;DHT22;383;48.766;9.270;2023-05-10T08:10:08;18.80;86.30
802;DHT22;383;48.766;9.270;2023-05-10T08:12:36;18.60;84.70
802;DHT22;383;48.766;9.270;2023-05-10T08:15:04;18.60;87.10
802;DHT22;383;48.766;9.270;2023-05-10T08:17:31;18.50;85.20
802;DHT22;383;48.766;9.270;2023-05-10T08:19:59;18.50;80.80
802;DHT22;383;48.766;9.270;2023-05-10T08:22:26;18.30;84.70
802;DHT22;383;48.766;9.270;2023-05-10T08:24:52;18.20;86.30
802;DHT22;383;48.766;9.270;2023-05-10T08:27:19;18.00;86.80
802;DHT22;383;48.766;9.270;2023-05-10T08:29:46;17.90;88.10
802;DHT22;383;48.766;9.270;2023-05-10T08:32:12;18.00;87.10
802;DHT22;383;48.766;9.270;2023-05-10T08:34:39;17.90;87.70
802;DHT22;383;48.766;9.270;2023-05-10T08:37:07;17.90;87.10
802;DHT22;383;48.766;9.270;2023-05-10T08:39:35;17.90;83.90
802;DHT22;383;48.766;9.270;2023-05-10T08:42:04;18.00;79.70
802;DHT22;383;48.766;9.270;2023-05-10T08:44:32;18.00;82.40
802;DHT22;383;48.766;9.270;2023-05-10T08:47:04;17.70;81.20
802;DHT22;383;48.766;9.270;2023-05-10T08:49:31;17.60;79.30
802;DHT22;383;48.766;9.270;2023-05-10T08:52:02;17.30;82.30
802;DHT22;383;48.766;9.270;2023-05-10T08:54:31;17.20;85.30
802;DHT22;383;48.766;9.270;2023-05-10T08:56:58;17.20;85.30
802;DHT22;383;48.766;9.270;2023-05-10T08:59:25;17.00;85.10
802;DHT22;383;48.766;9.270;2023-05-10T09:01:52;16.90;85.50
802;DHT22;383;48.766;9.270;2023-05-10T09:04:20;16.80;86.90
802;DHT22;383;48.766;9.270;2023-05-10T09:06:47;17.00;87.60
802;DHT22;383;48.766;9.270;2023-05-10T09:09:14;17.20;86.70
802;DHT22;383;48.766;9.270;2023-05-10T09:11:43;17.20;86.30
802;DHT22;383;48.766;9.270;2023-05-10T09:14:11;17.40;84.50
802;DHT22;383;48.766;9.270;2023-05-10T09:16:39;17.70;82.30
802;DHT22;383;48.766;9.270;2023-05-10T09:19:06;17.80;79.50
802;DHT22;383;48.766;9.270;2023-05-10T09:21:34;17.90;81.20
802;DHT22;383;48.766;9.270;2023-05-10T09:24:03;18.10;81.50
802;DHT22;383;48.766;9.270;2023-05-10T09:26:30;18.20;81.60
802;DHT22;383;48.766;9.270;2023-05-10T09:28:59;18.50;81.50
802;DHT22;383;48.766;9.270;2023-05-10T09:31:43;18.60;79.10
802;DHT22;383;48.766;9.270;2023-05-10T09:34:10;18.80;78.90
802;DHT22;383;48.766;9.270;2023-05-10T09:36:37;18.80;77.00
802;DHT22;383;48.766;9.270;2023-05-10T09:39:15;18.70;77.40
802;DHT22;383;48.766;9.270;2023-05-10T09:41:42;18.60;75.00
802;DHT22;383;48.766;9.270;2023-05-10T09:44:10;18.30;77.10
802;DHT22;383;48.766;9.270;2023-05-10T09:46:38;18.30;77.90
802;DHT22;383;48.766;9.270;2023-05-10T09:49:05;18.30;79.00
802;DHT22;383;48.766;9.270;2023-05-10T09:51:32;18.30;81.20
802;DHT22;383;48.766;9.270;2023-05-10T09:54:11;18.40;84.00
802;DHT22;383;48.766;9.270;2023-05-10T09:56:39;18.40;84.90
802;DHT22;383;48.766;9.270;2023-05-10T09:59:11;18.50;82.70
802;DHT22;383;48.766;9.270;2023-05-10T10:01:41;18.70;81.80
802;DHT22;383;48.766;9.270;2023-05-10T10:04:09;19.00;80.70
802;DHT22;383;48.766;9.270;2023-05-10T10:06:37;19.30;77.90
802;DHT22;383;48.766;9.270;2023-05-10T10:09:04;19.30;75.20
802;DHT22;383;48.766;9.270;2023-05-10T10:11:31;19.10;75.00
802;DHT22;383;48.766;9.270;2023-05-10T10:13:58;19.00;75.20
802;DHT22;383;48.766;9.270;2023-05-10T10:16:26;19.00;78.10
802;DHT22;383;48.766;9.270;2023-05-10T10:18:55;19.20;75.30
802;DHT22;383;48.766;9.270;2023-05-10T10:21:22;19.20;75.20
802;DHT22;383;48.766;9.270;2023-05-10T10:23:49;19.10;74.40
802;DHT22;383;48.766;9.270;2023-05-10T10:26:17;19.30;73.30
802;DHT22;383;48.766;9.270;2023-05-10T10:28:50;19.20;74.10
802;DHT22;383;48.766;9.270;2023-05-10T10:31:25;18.80;74.10
802;DHT22;383;48.766;9.270;2023-05-10T10:34:01;18.70;72.90
802;DHT22;383;48.766;9.270;2023-05-10T10:36:30;18.60;74.80
802;DHT22;383;48.766;9.270;2023-05-10T10:38:59;18.50;74.10
802;DHT22;383;48.766;9.270;2023-05-10T10:41:33;18.50;75.40
802;DHT22;383;48.766;9.270;2023-05-10T10:44:23;18.50;75.30
802;DHT22;383;48.766;9.270;2023-05-10T10:47:03;18.60;75.70
802;DHT22;383;48.766;9.270;2023-05-10T10:49:33;18.70;72.30
802;DHT22;383;48.766;9.270;2023-05-10T10:52:31;18.80;73.30
802;DHT22;383;48.766;9.270;2023-05-10T10:55:00;19.00;71.90
802;DHT22;383;48.766;9.270;2023-05-10T10:57:27;19.30;70.90
802;DHT22;383;48.766;9.270;2023-05-10T11:02:57;19.40;71.90
802;DHT22;383;48.766;9.270;2023-05-10T11:05:40;19.40;73.20
802;DHT22;383;48.766;9.270;2023-05-10T11:08:26;19.30;72.50
802;DHT22;383;48.766;9.270;2023-05-10T11:11:03;19.00;72.50
802;DHT22;383;48.766;9.270;2023-05-10T11:13:33;18.30;73.80
802;DHT22;383;48.766;9.270;2023-05-10T11:16:11;17.70;73.00
802;DHT22;383;48.766;9.270;2023-05-10T11:18:38;17.60;71.60
802;DHT22;383;48.766;9.270;2023-05-10T11:21:08;17.20;72.60
802;DHT22;383;48.766;9.270;2023-05-10T11:23:48;17.00;73.70
802;DHT22;383;48.766;9.270;2023-05-10T11:26:16;17.10;75.00
802;DHT22;383;48.766;9.270;2023-05-10T11:28:43;17.10;74.40
802;DHT22;383;48.766;9.270;2023-05-10T11:31:10;17.00;73.20
802;DHT22;383;48.766;9.270;2023-05-10T11:33:42;17.10;71.20
802;DHT22;383;48.766;9.270;2023-05-10T11:36:13;16.90;73.00
802;DHT22;383;48.766;9.270;2023-05-10T11:38:40;16.90;74.10
802;DHT22;383;48.766;9.270;2023-05-10T11:41:08;17.00;75.30
802;DHT22;383;48.766;9.270;2023-05-10T11:43:37;17.10;76.30
802;DHT22;383;48.766;9.270;2023-05-10T11:46:04;17.10;76.20
802;DHT22;383;48.766;9.270;2023-05-10T11:48:32;17.30;72.80
802;DHT22;383;48.766;9.270;2023-05-10T11:51:00;17.30;73.70
802;DHT22;383;48.766;9.270;2023-05-10T11:53:29;17.40;74.60
802;DHT22;383;48.766;9.270;2023-05-10T11:56:02;17.30;72.90
802;DHT22;383;48.766;9.270;2023-05-10T11:58:30;17.40;72.90
802;DHT22;383;48.766;9.270;2023-05-10T12:00:57;17.30;73.40
802;DHT22;383;48.766;9.270;2023-05-10T12:03:25;17.40;73.00
802;DHT22;383;48.766;9.270;2023-05-10T12:05:51;17.40;71.30
802;DHT22;383;48.766;9.270;2023-05-10T12:08:21;17.40;71.90
802;DHT22;383;48.766;9.270;2023-05-10T12:10:50;17.30;75.00
802;DHT22;383;48.766;9.270;2023-05-10T12:13:18;17.30;75.80
802;DHT22;383;48.766;9.270;2023-05-10T12:15:46;17.30;78.60
802;DHT22;383;48.766;9.270;2023-05-10T12:18:13;17.40;75.80
802;DHT22;383;48.766;9.270;2023-05-10T12:20:40;17.60;78.20
802;DHT22;383;48.766;9.270;2023-05-10T12:23:09;17.50;79.80
802;DHT22;383;48.766;9.270;2023-05-10T12:25:37;17.50;77.10
802;DHT22;383;48.766;9.270;2023-05-10T12:28:06;17.30;75.80
802;DHT22;383;48.766;9.270;2023-05-10T12:30:34;17.30;75.70
802;DHT22;383;48.766;9.270;2023-05-10T12:33:03;17.40;74.80
802;DHT22;383;48.766;9.270;2023-05-10T12:35:42;17.50;76.60
802;DHT22;383;48.766;9.270;2023-05-10T12:38:24;17.50;73.80
802;DHT22;383;48.766;9.270;2023-05-10T12:40:51;17.50;74.90
802;DHT22;383;48.766;9.270;2023-05-10T12:43:19;17.60;74.90
802;DHT22;383;48.766;9.270;2023-05-10T12:45:46;17.80;75.00
802;DHT22;383;48.766;9.270;2023-05-10T12:48:14;17.90;73.60
802;DHT22;383;48.766;9.270;2023-05-10T12:50:40;18.20;70.80
802;DHT22;383;48.766;9.270;2023-05-10T12:53:07;18.50;68.30
802;DHT22;383;48.766;9.270;2023-05-10T12:55:34;18.50;70.40
802;DHT22;383;48.766;9.270;2023-05-10T12:58:01;18.50;68.80
802;DHT22;383;48.766;9.270;2023-05-10T13:00:29;18.50;67.10
802;DHT22;383;48.766;9.270;2023-05-10T13:02:55;18.60;68.20
802;DHT22;383;48.766;9.270;2023-05-10T13:05:22;18.50;66.80
802;DHT22;383;48.766;9.270;2023-05-10T13:07:49;18.40;68.60
802;DHT22;383;48.766;9.270;2023-05-10T13:10:16;18.50;68.60
802;DHT22;383;48.766;9.270;2023-05-10T13:12:42;18.30;67.60
802;DHT22;383;48.766;9.270;2023-05-10T13:15:09;18.10;68.00
802;DHT22;383;48.766;9.270;2023-05-10T13:17:37;18.20;66.80
802;DHT22;383;48.766;9.270;2023-05-10T13:20:06;18.10;67.90
802;DHT22;383;48.766;9.270;2023-05-10T13:22:33;18.00;69.70
802;DHT22;383;48.766;9.270;2023-05-10T13:25:00;17.80;70.00
802;DHT22;383;48.766;9.270;2023-05-10T13:27:27;17.80;72.00
802;DHT22;383;48.766;9.270;2023-05-10T13:29:54;17.80;71.20
802;DHT22;383;48.766;9.270;2023-05-10T13:32:21;17.80;72.80
802;DHT22;383;48.766;9.270;2023-05-10T13:34:49;17.90;72.50
802;DHT22;383;48.766;9.270;2023-05-10T13:37:15;18.00;72.50
802;DHT22;383;48.766;9.270;2023-05-10T13:39:42;18.30;70.70
802;DHT22;383;48.766;9.270;2023-05-10T13:42:09;18.50;73.60
802;DHT22;383;48.766;9.270;2023-05-10T13:44:35;18.90;70.70
802;DHT22;383;48.766;9.270;2023-05-10T13:47:04;19.20;66.60
802;DHT22;383;48.766;9.270;2023-05-10T13:49:30;19.20;67.00
802;DHT22;383;48.766;9.270;2023-05-10T13:51:59;19.30;66.20
802;DHT22;383;48.766;9.270;2023-05-10T13:54:31;19.20;65.50
802;DHT22;383;48.766;9.270;2023-05-10T13:56:57;19.20;65.50
802;DHT22;383;48.766;9.270;2023-05-10T13:59:24;19.30;67.00
802;DHT22;383;48.766;9.270;2023-05-10T14:01:51;19.40;63.50
802;DHT22;383;48.766;9.270;2023-05-10T14:04:18;19.40;63.70
802;DHT22;383;48.766;9.270;2023-05-10T14:06:44;19.40;63.00
802;DHT22;383;48.766;9.270;2023-05-10T14:09:12;19.30;63.00
802;DHT22;383;48.766;9.270;2023-05-10T14:11:39;19.30;65.90
802;DHT22;383;48.766;9.270;2023-05-10T14:14:08;19.30;66.20
802;DHT22;383;48.766;9.270;2023-05-10T14:16:35;19.40;63.40
802;DHT22;383;48.766;9.270;2023-05-10T14:19:02;19.30;61.90
802;DHT22;383;48.766;9.270;2023-05-10T14:21:29;19.30;63.10
802;DHT22;383;48.766;9.270;2023-05-10T14:23:56;19.40;65.20
802;DHT22;383;48.766;9.270;2023-05-10T14:26:24;19.40;64.20
802;DHT22;383;48.766;9.270;2023-05-10T14:28:51;19.50;64.10
802;DHT22;383;48.766;9.270;2023-05-10T14:31:18;19.40;62.10
802;DHT22;383;48.766;9.270;2023-05-10T14:33:46;19.40;63.40
802;DHT22;383;48.766;9.270;2023-05-10T14:36:12;19.60;64.50
802;DHT22;383;48.766;9.270;2023-05-10T14:38:39;19.70;59.00
802;DHT22;383;48.766;9.270;2023-05-10T14:41:06;19.90;58.10
802;DHT22;383;48.766;9.270;2023-05-10T14:43:34;20.10;58.00
802;DHT22;383;48.766;9.270;2023-05-10T14:46:02;20.10;55.90
802;DHT22;383;48.766;9.270;2023-05-10T14:48:28;20.20;57.10
802;DHT22;383;48.766;9.270;2023-05-10T14:50:55;20.30;58.20
802;DHT22;383;48.766;9.270;2023-05-10T14:53:22;19.90;60.80
802;DHT22;383;48.766;9.270;2023-05-10T14:55:48;20.00;58.20
802;DHT22;383;48.766;9.270;2023-05-10T14:58:15;20.00;59.70
802;DHT22;383;48.766;9.270;2023-05-10T15:00:43;20.20;62.70
802;DHT22;383;48.766;9.270;2023-05-10T15:03:10;20.40;56.00
802;DHT22;383;48.766;9.270;2023-05-10T15:05:36;20.10;58.60
802;DHT22;383;48.766;9.270;2023-05-10T15:08:03;20.10;55.60
802;DHT22;383;48.766;9.270;2023-05-10T15:10:30;19.90;59.80
802;DHT22;383;48.766;9.270;2023-05-10T15:12:57;19.90;60.40
802;DHT22;383;48.766;9.270;2023-05-10T15:15:24;20.10;62.60
802;DHT22;383;48.766;9.270;2023-05-10T15:17:52;20.30;58.20
802;DHT22;383;48.766;9.270;2023-05-10T15:20:19;20.30;57.10
802;DHT22;383;48.766;9.270;2023-05-10T15:22:45;20.20;56.50
802;DHT22;383;48.766;9.270;2023-05-10T15:25:13;20.10;58.70
802;DHT22;383;48.766;9.270;2023-05-10T15:27:40;20.10;57.40
802;DHT22;383;48.766;9.270;2023-05-10T15:30:09;20.10;57.80
802;DHT22;383;48.766;9.270;2023-05-10T15:32:36;20.10;59.70
802;DHT22;383;48.766;9.270;2023-05-10T15:35:07;20.10;59.80
802;DHT22;383;48.766;9.270;2023-05-10T15:37:34;20.00;56.90
802;DHT22;383;48.766;9.270;2023-05-10T15:40:01;20.00;58.20
802;DHT22;383;48.766;9.270;2023-05-10T15:42:29;20.00;58.50
802;DHT22;383;48.766;9.270;2023-05-10T15:44:57;19.90;61.10
802;DHT22;383;48.766;9.270;2023-05-10T15:47:24;19.90;60.10
802;DHT22;383;48.766;9.270;2023-05-10T15:49:50;19.90;58.10
802;DHT22;383;48.766;9.270;2023-05-10T15:52:19;19.90;58.70
802;DHT22;383;48.766;9.270;2023-05-10T15:54:46;19.90;59.70
802;DHT22;383;48.766;9.270;2023-05-10T15:57:13;19.90;59.30
802;DHT22;383;48.766;9.270;2023-05-10T15:59:39;19.80;62.50
802;DHT22;383;48.766;9.270;2023-05-10T16:02:08;19.60;62.60
802;DHT22;383;48.766;9.270;2023-05-10T16:04:35;19.40;60.90
802;DHT22;383;48.766;9.270;2023-05-10T16:07:02;19.30;61.90
802;DHT22;383;48.766;9.270;2023-05-10T16:09:30;19.30;64.10
802;DHT22;383;48.766;9.270;2023-05-10T16:11:57;19.40;63.90
802;DHT22;383;48.766;9.270;2023-05-10T16:14:23;19.30;62.70
802;DHT22;383;48.766;9.270;2023-05-10T16:16:50;19.40;61.90
802;DHT22;383;48.766;9.270;2023-05-10T16:19:17;19.40;60.90
802;DHT22;383;48.766;9.270;2023-05-10T16:21:43;19.10;63.40
802;DHT22;383;48.766;9.270;2023-05-10T16:24:10;19.00;64.10
802;DHT22;383;48.766;9.270;2023-05-10T16:26:38;18.80;61.80
802;DHT22;383;48.766;9.270;2023-05-10T16:29:06;18.60;61.50
802;DHT22;383;48.766;9.270;2023-05-10T16:31:32;18.40;60.00
802;DHT22;383;48.766;9.270;2023-05-10T16:33:59;18.30;62.50
802;DHT22;383;48.766;9.270;2023-05-10T16:36:26;18.50;59.70
802;DHT22;383;48.766;9.270;2023-05-10T16:38:53;18.60;63.40
802;DHT22;383;48.766;9.270;2023-05-10T16:41:20;18.60;62.50
802;DHT22;383;48.766;9.270;2023-05-10T16:43:48;18.60;62.90